sensor_id;sensor_type;location;lat;lon;timestamp;P1;durP1;ratioP1;P2;durP2;ratioP2
20842;SDS011;26719;51.440;-2.574;2023-10-08T00:00:31;0.00;;;0.00;;
20842;SDS011;26719;51.440;-2.574;2023-10-08T00:03:19;0.00;;;0.00;;
20842;SDS011;26719;51.440;-2.574;2023-10-08T00:05:46;0.00;;;0.00;;
20842;SDS011;26719;51.440;-2.574;2023-10-08T00:08:12;0.00;;;0.00;;
20842;SDS011;26719;51.440;-2.574;2023-10-08T00:10:41;0.00;;;0.00;;
20842;SDS011;26719;51.440;-2.574;2023-10-08T00:13:10;0.00;;;0.00;;
20842;SDS011;26719;51.440;-2.574;2023-10-08T00:15:40;0.00;;;0.00;;
20842;SDS011;26719;51.440;-2.574;2023-10-08T00:18:20;0.00;;;0.00;;
20842;SDS011;26719;51.440;-2.574;2023-10-08T00:20:47;0.00;;;0.00;;
20842;SDS011;26719;51.440;-2.574;2023-10-08T00:23:32;0.00;;;0.00;;
20842;SDS011;26719;51.440;-2.574;2023-10-08T00:26:00;0.00;;;0.00;;
20842;SDS011;26719;51.440;-2.574;2023-10-08T00:28:30;0.00;;;0.00;;
20842;SDS011;26719;51.440;-2.574;2023-10-08T00:30:57;0.00;;;0.00;;
20842;SDS011;26719;51.440;-2.574;2023-10-08T00:33:30;0.00;;;0.00;;
20842;SDS011;26719;51.440;-2.574;2023-10-08T00:35:57;0.00;;;0.00;;
20842;SDS011;26719;51.440;-2.574;2023-10-08T00:38:23;0.00;;;0.00;;
20842;SDS011;26719;51.440;-2.574;2023-10-08T00:40:58;0.00;;;0.00;;
20842;SDS011;26719;51.440;-2.574;2023-10-08T00:43:28;0.00;;;0.00;;
20842;SDS011;26719;51.440;-2.574;2023-10-08T00:45:56;0.00;;;0.00;;
20842;SDS011;26719;51.440;-2.574;2023-10-08T00:48:24;0.00;;;0.00;;
20842;SDS011;26719;51.440;-2.574;2023-10-08T00:50:56;0.00;;;0.00;;
20842;SDS011;26719;51.440;-2.574;2023-10-08T00:53:52;0.00;;;0.00;;
20842;SDS011;26719;51.440;-2.574;2023-10-08T00:56:24;0.00;;;0.00;;
20842;SDS011;26719;51.440;-2.574;2023-10-08T00:58:51;0.00;;;0.00;;
20842;SDS011;26719;51.440;-2.574;2023-10-08T01:01:20;0.00;;;0.00;;
20842;SDS011;26719;51.440;-2.574;2023-10-08T01:03:47;0.00;;;0.00;;
20842;SDS011;26719;51.440;-2.574;2023-10-08T01:06:16;0.00;;;0.00;;
20842;SDS011;26719;51.440;-2.574;2023-10-08T01:08:44;0.00;;;0.00;;
20842;SDS011;26719;51.440;-2.574;2023-10-08T01:11:19;0.00;;;0.00;;
20842;SDS011;26719;51.440;-2.574;2023-10-08T01:14:13;0.00;;;0.00;;
20842;SDS011;26719;51.440;-2.574;2023-10-08T01:16:40;0.00;;;0.00;;
20842;SDS011;26719;51.440;-2.574;2023-10-08T01:19:11;0.00;;;0.00;;
20842;SDS011;26719;51.440;-2.574;2023-10-08T01:21:39;0.00;;;0.00;;
20842;SDS011;26719;51.440;-2.574;2023-10-08T01:24:05;0.00;;;0.00;;
20842;SDS011;26719;51.440;-2.574;2023-10-08T01:26:35;0.00;;;0.00;;
20842;SDS011;26719;51.440;-2.574;2023-10-08T01:29:09;0.00;;;0.00;;
20842;SDS011;26719;51.440;-2.574;2023-10-08T01:31:44;0.00;;;0.00;;
20842;SDS011;26719;51.440;-2.574;2023-10-08T01:34:10;0.00;;;0.00;;
20842;SDS011;26719;51.440;-2.574;2023-10-08T01:36:41;0.00;;;0.00;;
20842;SDS011;26719;51.440;-2.574;2023-10-08T01:39:12;0.00;;;0.00;;
20842;SDS011;26719;51.440;-2.574;2023-10-08T01:41:43;0.00;;;0.00;;
20842;SDS011;26719;51.440;-2.574;2023-10-08T01:44:12;0.00;;;0.00;;
20842;SDS011;26719;51.440;-2.574;2023-10-08T01:46:38;0.00;;;0.00;;
20842;SDS011;26719;51.440;-2.574;2023-10-08T01:49:06;0.00;;;0.00;;
20842;SDS011;26719;51.440;-2.574;2023-10-08T01:51:40;0.00;;;0.00;;
20842;SDS011;26719;51.440;-2.574;2023-10-08T01:54:13;0.00;;;0.00;;
20842;SDS011;26719;51.440;-2.574;2023-10-08T01:56:42;0.00;;;0.00;;
20842;SDS011;26719;51.440;-2.574;2023-10-08T01:59:09;0.00;;;0.00;;
20842;SDS011;26719;51.440;-2.574;2023-10-08T02:01:36;0.00;;;0.00;;
20842;SDS011;26719;51.440;-2.574;2023-10-08T02:04:07;0.00;;;0.00;;
20842;SDS011;26719;51.440;-2.574;2023-10-08T02:06:33;0.00;;;0.00;;
20842;SDS011;26719;51.440;-2.574;2023-10-08T02:09:00;0.00;;;0.00;;
20842;SDS011;26719;51.440;-2.574;2023-10-08T02:11:40;0.00;;;0.00;;
20842;SDS011;26719;51.440;-2.574;2023-10-08T02:14:11;0.00;;;0.00;;
20842;SDS011;26719;51.440;-2.574;2023-10-08T02:16:43;0.00;;;0.00;;
20842;SDS011;26719;51.440;-2.574;2023-10-08T02:19:09;0.00;;;0.00;;
20842;SDS011;26719;51.440;-2.574;2023-10-08T02:21:36;0.00;;;0.00;;
20842;SDS011;26719;51.440;-2.574;2023-10-08T02:24:05;0.00;;;0.00;;
20842;SDS011;26719;51.440;-2.574;2023-10-08T02:26:32;0.00;;;0.00;;
20842;SDS011;26719;51.440;-2.574;2023-10-08T02:29:02;0.00;;;0.00;;
20842;SDS011;26719;51.440;-2.574;2023-10-08T02:31:39;0.00;;;0.00;;
20842;SDS011;26719;51.440;-2.574;2023-10-08T02:34:05;0.00;;;0.00;;
20842;SDS011;26719;51.440;-2.574;2023-10-08T02:36:37;0.00;;;0.00;;
20842;SDS011;26719;51.440;-2.574;2023-10-08T02:39:05;0.00;;;0.00;;
20842;SDS011;26719;51.440;-2.574;2023-10-08T02:41:39;0.00;;;0.00;;
20842;SDS011;26719;51.440;-2.574;2023-10-08T02:44:07;0.00;;;0.00;;
20842;SDS011;26719;51.440;-2.574;2023-10-08T02:46:40;0.00;;;0.00;;
20842;SDS011;26719;51.440;-2.574;2023-10-08T02:49:17;0.00;;;0.00;;
20842;SDS011;26719;51.440;-2.574;2023-10-08T02:51:46;0.00;;;0.00;;
20842;SDS011;26719;51.440;-2.574;2023-10-08T02:54:15;0.00;;;0.00;;
20842;SDS011;26719;51.440;-2.574;2023-10-08T02:56:49;0.00;;;0.00;;
20842;SDS011;26719;51.440;-2.574;2023-10-08T02:59:29;0.00;;;0.00;;
20842;SDS011;26719;51.440;-2.574;2023-10-08T03:02:04;0.00;;;0.00;;
20842;SDS011;26719;51.440;-2.574;2023-10-08T03:04:44;0.00;;;0.00;;
20842;SDS011;26719;51.440;-2.574;2023-10-08T03:07:14;0.00;;;0.00;;
20842;SDS011;26719;51.440;-2.574;2023-10-08T03:09:49;0.00;;;0.00;;
20842;SDS011;26719;51.440;-2.574;2023-10-08T03:12:16;0.00;;;0.00;;
20842;SDS011;26719;51.440;-2.574;2023-10-08T03:14:43;0.00;;;0.00;;
20842;SDS011;26719;51.440;-2.574;2023-10-08T03:17:41;0.00;;;0.00;;
20842;SDS011;26719;51.440;-2.574;2023-10-08T03:20:19;0.00;;;0.00;;
20842;SDS011;26719;51.440;-2.574;2023-10-08T03:23:15;0.00;;;0.00;;
20842;SDS011;26719;51.440;-2.574;2023-10-08T03:28:27;0.00;;;0.00;;
20842;SDS011;26719;51.440;-2.574;2023-10-08T03:30:54;0.00;;;0.00;;
20842;SDS011;26719;51.440;-2.574;2023-10-08T03:33:33;0.00;;;0.00;;
20842;SDS011;26719;51.440;-2.574;2023-10-08T03:36:00;0.00;;;0.00;;
20842;SDS011;26719;51.440;-2.574;2023-10-08T03:38:34;0.00;;;0.00;;
20842;SDS011;26719;51.440;-2.574;2023-10-08T03:41:10;0.00;;;0.00;;
20842;SDS011;26719;51.440;-2.574;2023-10-08T03:43:44;0.00;;;0.00;;
20842;SDS011;26719;51.440;-2.574;2023-10-08T03:46:29;0.00;;;0.00;;
20842;SDS011;26719;51.440;-2.574;2023-10-08T03:48:56;0.00;;;0.00;;
20842;SDS011;26719;51.440;-2.574;2023-10-08T03:51:22;0.00;;;0.00;;
20842;SDS011;26719;51.440;-2.574;2023-10-08T03:53:55;0.00;;;0.00;;
20842;SDS011;26719;51.440;-2.574;2023-10-08T03:56:25;0.00;;;0.00;;
20842;SDS011;26719;51.440;-2.574;2023-10-08T03:58:54;0.00;;;0.00;;
20842;SDS011;26719;51.440;-2.574;2023-10-08T04:01:25;0.00;;;0.00;;
20842;SDS011;26719;51.440;-2.574;2023-10-08T04:03:55;0.00;;;0.00;;
20842;SDS011;26719;51.440;-2.574;2023-10-08T04:06:26;0.00;;;0.00;;
20842;SDS011;26719;51.440;-2.574;2023-10-08T04:08:59;0.00;;;0.00;;
20842;SDS011;26719;51.440;-2.574;2023-10-08T04:11:37;0.00;;;0.00;;
20842;SDS011;26719;51.440;-2.574;2023-10-08T04:14:16;0.00;;;0.00;;
20842;SDS011;26719;51.440;-2.574;2023-10-08T04:16:42;0.00;;;0.00;;
20842;SDS011;26719;51.440;-2.574;2023-10-08T04:19:09;0.00;;;0.00;;
20842;SDS011;26719;51.440;-2.574;2023-10-08T04:21:36;0.00;;;0.00;;
20842;SDS011;26719;51.440;-2.574;2023-10-08T04:24:05;0.00;;;0.00;;
20842;SDS011;26719;51.440;-2.574;2023-10-08T04:26:31;0.00;;;0.00;;
20842;SDS011;26719;51.440;-2.574;2023-10-08T04:28:58;0.00;;;0.00;;
20842;SDS011;26719;51.440;-2.574;2023-10-08T04:31:30;0.00;;;0.00;;
20842;SDS011;26719;51.440;-2.574;2023-10-08T04:34:04;0.00;;;0.00;;
20842;SDS011;26719;51.440;-2.574;2023-10-08T04:36:48;0.00;;;0.00;;
20842;SDS011;26719;51.440;-2.574;2023-10-08T04:39:29;0.00;;;0.00;;
20842;SDS011;26719;51.440;-2.574;2023-10-08T04:42:07;0.00;;;0.00;;
20842;SDS011;26719;51.440;-2.574;2023-10-08T04:44:38;0.00;;;0.00;;
20842;SDS011;26719;51.440;-2.574;2023-10-08T04:47:04;0.00;;;0.00;;
20842;SDS011;26719;51.440;-2.574;2023-10-08T04:49:31;0.00;;;0.00;;
20842;SDS011;26719;51.440;-2.574;2023-10-08T04:52:04;0.00;;;0.00;;
20842;SDS011;26719;51.440;-2.574;2023-10-08T04:54:34;0.00;;;0.00;;
20842;SDS011;26719;51.440;-2.574;2023-10-08T04:57:08;0.00;;;0.00;;
20842;SDS011;26719;51.440;-2.574;2023-10-08T04:59:43;0.00;;;0.00;;
20842;SDS011;26719;51.440;-2.574;2023-10-08T05:02:09;0.00;;;0.00;;
20842;SDS011;26719;51.440;-2.574;2023-10-08T05:04:49;0.00;;;0.00;;
20842;SDS011;26719;51.440;-2.574;2023-10-08T05:07:34;0.00;;;0.00;;
20842;SDS011;26719;51.440;-2.574;2023-10-08T05:10:09;0.00;;;0.00;;
20842;SDS011;26719;51.440;-2.574;2023-10-08T05:12:55;0.00;;;0.00;;
20842;SDS011;26719;51.440;-2.574;2023-10-08T05:15:31;0.00;;;0.00;;
20842;SDS011;26719;51.440;-2.574;2023-10-08T05:18:35;0.00;;;0.00;;
20842;SDS011;26719;51.440;-2.574;2023-10-08T05:21:32;0.00;;;0.00;;
20842;SDS011;26719;51.440;-2.574;2023-10-08T05:24:16;0.00;;;0.00;;
20842;SDS011;26719;51.440;-2.574;2023-10-08T05:26:49;0.00;;;0.00;;
20842;SDS011;26719;51.440;-2.574;2023-10-08T05:29:24;0.00;;;0.00;;
20842;SDS011;26719;51.440;-2.574;2023-10-08T05:32:07;0.00;;;0.00;;
20842;SDS011;26719;51.440;-2.574;2023-10-08T05:34:52;0.00;;;0.00;;
20842;SDS011;26719;51.440;-2.574;2023-10-08T05:37:37;0.00;;;0.00;;
20842;SDS011;26719;51.440;-2.574;2023-10-08T05:40:07;0.00;;;0.00;;
20842;SDS011;26719;51.440;-2.574;2023-10-08T05:43:08;0.00;;;0.00;;
20842;SDS011;26719;51.440;-2.574;2023-10-08T05:45:48;0.00;;;0.00;;
20842;SDS011;26719;51.440;-2.574;2023-10-08T05:48:34;0.00;;;0.00;;
20842;SDS011;26719;51.440;-2.574;2023-10-08T05:51:10;0.00;;;0.00;;
20842;SDS011;26719;51.440;-2.574;2023-10-08T05:53:49;0.00;;;0.00;;
20842;SDS011;26719;51.440;-2.574;2023-10-08T05:56:22;0.00;;;0.00;;
20842;SDS011;26719;51.440;-2.574;2023-10-08T05:59:08;0.00;;;0.00;;
20842;SDS011;26719;51.440;-2.574;2023-10-08T06:01:43;0.00;;;0.00;;
20842;SDS011;26719;51.440;-2.574;2023-10-08T06:04:11;0.00;;;0.00;;
20842;SDS011;26719;51.440;-2.574;2023-10-08T06:07:06;0.00;;;0.00;;
20842;SDS011;26719;51.440;-2.574;2023-10-08T06:09:37;0.00;;;0.00;;
20842;SDS011;26719;51.440;-2.574;2023-10-08T06:12:05;0.00;;;0.00;;
20842;SDS011;26719;51.440;-2.574;2023-10-08T06:14:36;0.00;;;0.00;;
20842;SDS011;26719;51.440;-2.574;2023-10-08T06:17:21;0.00;;;0.00;;
20842;SDS011;26719;51.440;-2.574;2023-10-08T06:20:06;0.00;;;0.00;;
20842;SDS011;26719;51.440;-2.574;2023-10-08T06:22:35;0.00;;;0.00;;
20842;SDS011;26719;51.440;-2.574;2023-10-08T06:25:01;0.00;;;0.00;;
20842;SDS011;26719;51.440;-2.574;2023-10-08T06:27:42;0.00;;;0.00;;
20842;SDS011;26719;51.440;-2.574;2023-10-08T06:30:11;0.00;;;0.00;;
20842;SDS011;26719;51.440;-2.574;2023-10-08T06:32:42;0.00;;;0.00;;
20842;SDS011;26719;51.440;-2.574;2023-10-08T06:35:09;0.00;;;0.00;;
20842;SDS011;26719;51.440;-2.574;2023-10-08T06:37:43;0.00;;;0.00;;
20842;SDS011;26719;51.440;-2.574;2023-10-08T06:40:10;0.00;;;0.00;;
20842;SDS011;26719;51.440;-2.574;2023-10-08T06:42:56;0.00;;;0.00;;
20842;SDS011;26719;51.440;-2.574;2023-10-08T06:45:31;0.00;;;0.00;;
20842;SDS011;26719;51.440;-2.574;2023-10-08T06:48:01;0.00;;;0.00;;
20842;SDS011;26719;51.440;-2.574;2023-10-08T06:50:32;0.00;;;0.00;;
20842;SDS011;26719;51.440;-2.574;2023-10-08T06:53:03;0.00;;;0.00;;
20842;SDS011;26719;51.440;-2.574;2023-10-08T06:55:36;0.00;;;0.00;;
20842;SDS011;26719;51.440;-2.574;2023-10-08T06:58:03;0.00;;;0.00;;
20842;SDS011;26719;51.440;-2.574;2023-10-08T07:00:37;0.00;;;0.00;;
20842;SDS011;26719;51.440;-2.574;2023-10-08T07:03:05;0.00;;;0.00;;
20842;SDS011;26719;51.440;-2.574;2023-10-08T07:05:33;0.00;;;0.00;;
20842;SDS011;26719;51.440;-2.574;2023-10-08T07:08:06;0.00;;;0.00;;
20842;SDS011;26719;51.440;-2.574;2023-10-08T07:10:32;0.00;;;0.00;;
20842;SDS011;26719;51.440;-2.574;2023-10-08T07:13:02;0.10;;;0.10;;
20842;SDS011;26719;51.440;-2.574;2023-10-08T07:15:29;0.00;;;0.00;;
20842;SDS011;26719;51.440;-2.574;2023-10-08T07:17:56;0.00;;;0.00;;
20842;SDS011;26719;51.440;-2.574;2023-10-08T07:20:24;0.00;;;0.00;;
20842;SDS011;26719;51.440;-2.574;2023-10-08T07:22:50;0.00;;;0.00;;
20842;SDS011;26719;51.440;-2.574;2023-10-08T07:25:21;0.00;;;0.00;;
20842;SDS011;26719;51.440;-2.574;2023-10-08T07:27:47;0.00;;;0.00;;
20842;SDS011;26719;51.440;-2.574;2023-10-08T07:30:14;0.00;;;0.00;;
20842;SDS011;26719;51.440;-2.574;2023-10-08T07:32:52;0.00;;;0.00;;
20842;SDS011;26719;51.440;-2.574;2023-10-08T07:35:19;0.00;;;0.00;;
20842;SDS011;26719;51.440;-2.574;2023-10-08T07:37:46;0.00;;;0.00;;
20842;SDS011;26719;51.440;-2.574;2023-10-08T07:40:15;0.00;;;0.00;;
20842;SDS011;26719;51.440;-2.574;2023-10-08T07:42:41;0.00;;;0.00;;
20842;SDS011;26719;51.440;-2.574;2023-10-08T07:45:09;0.00;;;0.00;;
20842;SDS011;26719;51.440;-2.574;2023-10-08T07:47:42;0.00;;;0.00;;
20842;SDS011;26719;51.440;-2.574;2023-10-08T07:50:09;0.00;;;0.00;;
20842;SDS011;26719;51.440;-2.574;2023-10-08T07:52:38;0.00;;;0.00;;
20842;SDS011;26719;51.440;-2.574;2023-10-08T07:55:09;0.00;;;0.00;;
20842;SDS011;26719;51.440;-2.574;2023-10-08T07:57:35;0.00;;;0.00;;
20842;SDS011;26719;51.440;-2.574;2023-10-08T08:00:01;0.00;;;0.00;;
20842;SDS011;26719;51.440;-2.574;2023-10-08T08:02:44;0.00;;;0.00;;
20842;SDS011;26719;51.440;-2.574;2023-10-08T08:05:10;0.00;;;0.00;;
20842;SDS011;26719;51.440;-2.574;2023-10-08T08:07:42;0.00;;;0.00;;
20842;SDS011;26719;51.440;-2.574;2023-10-08T08:10:11;0.00;;;0.00;;
20842;SDS011;26719;51.440;-2.574;2023-10-08T08:12:39;0.00;;;0.00;;
20842;SDS011;26719;51.440;-2.574;2023-10-08T08:15:06;0.00;;;0.00;;
20842;SDS011;26719;51.440;-2.574;2023-10-08T08:17:43;0.00;;;0.00;;
20842;SDS011;26719;51.440;-2.574;2023-10-08T08:20:13;0.00;;;0.00;;
20842;SDS011;26719;51.440;-2.574;2023-10-08T08:22:43;0.00;;;0.00;;
20842;SDS011;26719;51.440;-2.574;2023-10-08T08:25:22;0.00;;;0.00;;
20842;SDS011;26719;51.440;-2.574;2023-10-08T08:27:59;0.00;;;0.00;;
20842;SDS011;26719;51.440;-2.574;2023-10-08T08:30:26;0.00;;;0.00;;
20842;SDS011;26719;51.440;-2.574;2023-10-08T08:32:55;0.00;;;0.00;;
20842;SDS011;26719;51.440;-2.574;2023-10-08T08:35:23;0.00;;;0.00;;
20842;SDS011;26719;51.440;-2.574;2023-10-08T08:37:50;0.00;;;0.00;;
20842;SDS011;26719;51.440;-2.574;2023-10-08T08:40:19;0.00;;;0.00;;
20842;SDS011;26719;51.440;-2.574;2023-10-08T08:42:50;0.00;;;0.00;;
20842;SDS011;26719;51.440;-2.574;2023-10-08T08:45:28;0.00;;;0.00;;
20842;SDS011;26719;51.440;-2.574;2023-10-08T08:47:58;0.00;;;0.00;;
20842;SDS011;26719;51.440;-2.574;2023-10-08T08:50:25;0.00;;;0.00;;
20842;SDS011;26719;51.440;-2.574;2023-10-08T08:52:55;0.00;;;0.00;;
20842;SDS011;26719;51.440;-2.574;2023-10-08T08:55:24;0.00;;;0.00;;
20842;SDS011;26719;51.440;-2.574;2023-10-08T08:57:56;0.00;;;0.00;;
20842;SDS011;26719;51.440;-2.574;2023-10-08T09:00:26;0.00;;;0.00;;
20842;SDS011;26719;51.440;-2.574;2023-10-08T09:02:57;0.00;;;0.00;;
20842;SDS011;26719;51.440;-2.574;2023-10-08T09:05:24;0.00;;;0.00;;
20842;SDS011;26719;51.440;-2.574;2023-10-08T09:07:58;0.00;;;0.00;;
20842;SDS011;26719;51.440;-2.574;2023-10-08T09:10:28;0.00;;;0.00;;
20842;SDS011;26719;51.440;-2.574;2023-10-08T09:12:55;0.00;;;0.00;;
20842;SDS011;26719;51.440;-2.574;2023-10-08T09:15:25;0.00;;;0.00;;
20842;SDS011;26719;51.440;-2.574;2023-10-08T09:17:56;0.00;;;0.00;;
20842;SDS011;26719;51.440;-2.574;2023-10-08T09:20:26;0.00;;;0.00;;
20842;SDS011;26719;51.440;-2.574;2023-10-08T09:23:09;0.00;;;0.00;;
20842;SDS011;26719;51.440;-2.574;2023-10-08T09:25:42;0.00;;;0.00;;
20842;SDS011;26719;51.440;-2.574;2023-10-08T09:28:10;0.00;;;0.00;;
20842;SDS011;26719;51.440;-2.574;2023-10-08T09:30:38;0.00;;;0.00;;
20842;SDS011;26719;51.440;-2.574;2023-10-08T09:33:05;0.00;;;0.00;;
20842;SDS011;26719;51.440;-2.574;2023-10-08T09:35:32;0.00;;;0.00;;
20842;SDS011;26719;51.440;-2.574;2023-10-08T09:38:04;0.00;;;0.00;;
20842;SDS011;26719;51.440;-2.574;2023-10-08T09:40:34;0.00;;;0.00;;
20842;SDS011;26719;51.440;-2.574;2023-10-08T09:43:01;0.00;;;0.00;;
20842;SDS011;26719;51.440;-2.574;2023-10-08T09:45:30;0.00;;;0.00;;
20842;SDS011;26719;51.440;-2.574;2023-10-08T09:47:56;0.00;;;0.00;;
20842;SDS011;26719;51.440;-2.574;2023-10-08T09:50:33;0.00;;;0.00;;
20842;SDS011;26719;51.440;-2.574;2023-10-08T09:53:08;0.00;;;0.00;;
20842;SDS011;26719;51.440;-2.574;2023-10-08T09:58:23;0.00;;;0.00;;
20842;SDS011;26719;51.440;-2.574;2023-10-08T10:00:56;0.00;;;0.00;;
20842;SDS011;26719;51.440;-2.574;2023-10-08T10:03:23;0.00;;;0.00;;
20842;SDS011;26719;51.440;-2.574;2023-10-08T10:05:51;0.00;;;0.00;;
20842;SDS011;26719;51.440;-2.574;2023-10-08T10:08:18;0.00;;;0.00;;
20842;SDS011;26719;51.440;-2.574;2023-10-08T10:10:45;0.00;;;0.00;;
20842;SDS011;26719;51.440;-2.574;2023-10-08T10:13:13;0.00;;;0.00;;
20842;SDS011;26719;51.440;-2.574;2023-10-08T10:15:41;0.00;;;0.00;;
20842;SDS011;26719;51.440;-2.574;2023-10-08T10:18:08;0.10;;;0.10;;
20842;SDS011;26719;51.440;-2.574;2023-10-08T10:20:38;0.10;;;0.10;;
20842;SDS011;26719;51.440;-2.574;2023-10-08T10:25:50;0.10;;;0.10;;
20842;SDS011;26719;51.440;-2.574;2023-10-08T10:28:22;0.10;;;0.10;;
20842;SDS011;26719;51.440;-2.574;2023-10-08T10:30:50;0.20;;;0.20;;
20842;SDS011;26719;51.440;-2.574;2023-10-08T10:33:16;0.10;;;0.10;;
20842;SDS011;26719;51.440;-2.574;2023-10-08T10:35:48;0.10;;;0.10;;
20842;SDS011;26719;51.440;-2.574;2023-10-08T10:38:18;0.10;;;0.10;;
20842;SDS011;26719;51.440;-2.574;2023-10-08T10:40:48;0.10;;;0.10;;
20842;SDS011;26719;51.440;-2.574;2023-10-08T10:43:25;0.20;;;0.20;;
20842;SDS011;26719;51.440;-2.574;2023-10-08T10:46:01;0.10;;;0.10;;
20842;SDS011;26719;51.440;-2.574;2023-10-08T10:48:55;0.10;;;0.10;;
20842;SDS011;26719;51.440;-2.574;2023-10-08T10:51:39;0.10;;;0.10;;
20842;SDS011;26719;51.440;-2.574;2023-10-08T10:54:06;0.10;;;0.10;;
20842;SDS011;26719;51.440;-2.574;2023-10-08T10:56:34;0.10;;;0.10;;
20842;SDS011;26719;51.440;-2.574;2023-10-08T10:59:10;0.10;;;0.10;;
20842;SDS011;26719;51.440;-2.574;2023-10-08T11:01:52;0.10;;;0.10;;
20842;SDS011;26719;51.440;-2.574;2023-10-08T11:04:30;0.10;;;0.10;;
20842;SDS011;26719;51.440;-2.574;2023-10-08T11:06:56;0.10;;;0.10;;
20842;SDS011;26719;51.440;-2.574;2023-10-08T11:09:27;0.10;;;0.10;;
20842;SDS011;26719;51.440;-2.574;2023-10-08T11:12:09;0.10;;;0.10;;
20842;SDS011;26719;51.440;-2.574;2023-10-08T11:14:37;0.10;;;0.10;;
20842;SDS011;26719;51.440;-2.574;2023-10-08T11:17:15;0.10;;;0.10;;
20842;SDS011;26719;51.440;-2.574;2023-10-08T11:19:42;0.10;;;0.10;;
20842;SDS011;26719;51.440;-2.574;2023-10-08T11:22:11;0.10;;;0.10;;
20842;SDS011;26719;51.440;-2.574;2023-10-08T11:24:42;0.10;;;0.10;;
20842;SDS011;26719;51.440;-2.574;2023-10-08T11:27:09;0.10;;;0.10;;
20842;SDS011;26719;51.440;-2.574;2023-10-08T11:29:48;0.10;;;0.10;;
20842;SDS011;26719;51.440;-2.574;2023-10-08T11:32:25;0.10;;;0.10;;
20842;SDS011;26719;51.440;-2.574;2023-10-08T11:34:58;0.10;;;0.10;;
20842;SDS011;26719;51.440;-2.574;2023-10-08T11:37:28;0.00;;;0.00;;
20842;SDS011;26719;51.440;-2.574;2023-10-08T11:39:54;0.08;;;0.08;;
20842;SDS011;26719;51.440;-2.574;2023-10-08T11:42:24;0.10;;;0.10;;
20842;SDS011;26719;51.440;-2.574;2023-10-08T11:45:02;0.00;;;0.00;;
20842;SDS011;26719;51.440;-2.574;2023-10-08T11:47:52;0.10;;;0.10;;
20842;SDS011;26719;51.440;-2.574;2023-10-08T11:50:25;0.10;;;0.10;;
20842;SDS011;26719;51.440;-2.574;2023-10-08T11:52:58;0.10;;;0.10;;
20842;SDS011;26719;51.440;-2.574;2023-10-08T11:55:28;0.10;;;0.10;;
20842;SDS011;26719;51.440;-2.574;2023-10-08T11:57:54;0.10;;;0.10;;
20842;SDS011;26719;51.440;-2.574;2023-10-08T12:00:21;0.10;;;0.10;;
20842;SDS011;26719;51.440;-2.574;2023-10-08T12:02:50;0.10;;;0.10;;
20842;SDS011;26719;51.440;-2.574;2023-10-08T12:05:19;0.10;;;0.10;;
20842;SDS011;26719;51.440;-2.574;2023-10-08T12:07:46;0.10;;;0.10;;
20842;SDS011;26719;51.440;-2.574;2023-10-08T12:10:13;0.10;;;0.10;;
20842;SDS011;26719;51.440;-2.574;2023-10-08T12:12:42;0.10;;;0.10;;
20842;SDS011;26719;51.440;-2.574;2023-10-08T12:15:11;0.10;;;0.10;;
20842;SDS011;26719;51.440;-2.574;2023-10-08T12:17:45;0.10;;;0.10;;
20842;SDS011;26719;51.440;-2.574;2023-10-08T12:20:18;0.00;;;0.00;;
20842;SDS011;26719;51.440;-2.574;2023-10-08T12:22:55;0.10;;;0.10;;
20842;SDS011;26719;51.440;-2.574;2023-10-08T12:25:21;0.17;;;0.17;;
20842;SDS011;26719;51.440;-2.574;2023-10-08T12:27:47;0.10;;;0.10;;
20842;SDS011;26719;51.440;-2.574;2023-10-08T12:30:14;0.20;;;0.20;;
20842;SDS011;26719;51.440;-2.574;2023-10-08T12:32:40;0.10;;;0.10;;
20842;SDS011;26719;51.440;-2.574;2023-10-08T12:35:10;0.20;;;0.20;;
20842;SDS011;26719;51.440;-2.574;2023-10-08T12:37:39;0.20;;;0.20;;
20842;SDS011;26719;51.440;-2.574;2023-10-08T12:40:06;0.20;;;0.20;;
20842;SDS011;26719;51.440;-2.574;2023-10-08T12:42:50;0.10;;;0.10;;
20842;SDS011;26719;51.440;-2.574;2023-10-08T12:45:18;0.15;;;0.15;;
20842;SDS011;26719;51.440;-2.574;2023-10-08T12:47:55;0.20;;;0.20;;
20842;SDS011;26719;51.440;-2.574;2023-10-08T12:50:25;0.20;;;0.20;;
20842;SDS011;26719;51.440;-2.574;2023-10-08T12:52:55;0.10;;;0.10;;
20842;SDS011;26719;51.440;-2.574;2023-10-08T12:55:22;0.20;;;0.20;;
20842;SDS011;26719;51.440;-2.574;2023-10-08T12:57:55;0.20;;;0.20;;
20842;SDS011;26719;51.440;-2.574;2023-10-08T13:00:22;0.20;;;0.20;;
20842;SDS011;26719;51.440;-2.574;2023-10-08T13:02:49;0.10;;;0.10;;
20842;SDS011;26719;51.440;-2.574;2023-10-08T13:05:21;0.20;;;0.20;;
20842;SDS011;26719;51.440;-2.574;2023-10-08T13:07:55;0.10;;;0.10;;
20842;SDS011;26719;51.440;-2.574;2023-10-08T13:10:21;0.20;;;0.20;;
20842;SDS011;26719;51.440;-2.574;2023-10-08T13:12:48;0.10;;;0.10;;
20842;SDS011;26719;51.440;-2.574;2023-10-08T13:15:14;0.20;;;0.20;;
20842;SDS011;26719;51.440;-2.574;2023-10-08T13:17:40;0.20;;;0.20;;
20842;SDS011;26719;51.440;-2.574;2023-10-08T13:20:09;0.20;;;0.20;;
20842;SDS011;26719;51.440;-2.574;2023-10-08T13:22:38;0.10;;;0.10;;
20842;SDS011;26719;51.440;-2.574;2023-10-08T13:25:05;0.20;;;0.20;;
20842;SDS011;26719;51.440;-2.574;2023-10-08T13:27:31;0.28;;;0.28;;
20842;SDS011;26719;51.440;-2.574;2023-10-08T13:29:58;0.20;;;0.20;;
20842;SDS011;26719;51.440;-2.574;2023-10-08T13:32:25;0.20;;;0.20;;
20842;SDS011;26719;51.440;-2.574;2023-10-08T13:34:51;0.17;;;0.17;;
20842;SDS011;26719;51.440;-2.574;2023-10-08T13:37:20;0.20;;;0.20;;
20842;SDS011;26719;51.440;-2.574;2023-10-08T13:39:46;0.20;;;0.20;;
20842;SDS011;26719;51.440;-2.574;2023-10-08T13:42:12;0.20;;;0.20;;
20842;SDS011;26719;51.440;-2.574;2023-10-08T13:44:44;0.20;;;0.20;;
20842;SDS011;26719;51.440;-2.574;2023-10-08T13:47:10;0.20;;;0.20;;
20842;SDS011;26719;51.440;-2.574;2023-10-08T13:49:40;0.20;;;0.20;;
20842;SDS011;26719;51.440;-2.574;2023-10-08T13:52:08;0.20;;;0.20;;
20842;SDS011;26719;51.440;-2.574;2023-10-08T13:54:37;0.22;;;0.22;;
20842;SDS011;26719;51.440;-2.574;2023-10-08T13:57:07;0.10;;;0.10;;
20842;SDS011;26719;51.440;-2.574;2023-10-08T13:59:34;0.20;;;0.20;;
20842;SDS011;26719;51.440;-2.574;2023-10-08T14:02:01;0.10;;;0.10;;
20842;SDS011;26719;51.440;-2.574;2023-10-08T14:04:39;0.20;;;0.20;;
20842;SDS011;26719;51.440;-2.574;2023-10-08T14:07:08;0.10;;;0.10;;
20842;SDS011;26719;51.440;-2.574;2023-10-08T14:09:36;0.20;;;0.20;;
20842;SDS011;26719;51.440;-2.574;2023-10-08T14:12:03;0.25;;;0.25;;
20842;SDS011;26719;51.440;-2.574;2023-10-08T14:14:31;0.20;;;0.20;;
20842;SDS011;26719;51.440;-2.574;2023-10-08T14:17:01;0.20;;;0.20;;
20842;SDS011;26719;51.440;-2.574;2023-10-08T14:19:36;0.20;;;0.20;;
20842;SDS011;26719;51.440;-2.574;2023-10-08T14:22:12;0.20;;;0.20;;
20842;SDS011;26719;51.440;-2.574;2023-10-08T14:24:42;0.20;;;0.20;;
20842;SDS011;26719;51.440;-2.574;2023-10-08T14:27:11;0.20;;;0.20;;
20842;SDS011;26719;51.440;-2.574;2023-10-08T14:29:40;0.20;;;0.20;;
20842;SDS011;26719;51.440;-2.574;2023-10-08T14:32:10;0.30;;;0.30;;
20842;SDS011;26719;51.440;-2.574;2023-10-08T14:34:36;0.20;;;0.20;;
20842;SDS011;26719;51.440;-2.574;2023-10-08T14:37:12;0.20;;;0.20;;
20842;SDS011;26719;51.440;-2.574;2023-10-08T14:39:57;0.20;;;0.20;;
20842;SDS011;26719;51.440;-2.574;2023-10-08T14:42:42;0.30;;;0.30;;
20842;SDS011;26719;51.440;-2.574;2023-10-08T14:45:24;0.20;;;0.20;;
20842;SDS011;26719;51.440;-2.574;2023-10-08T14:47:56;0.20;;;0.20;;
20842;SDS011;26719;51.440;-2.574;2023-10-08T14:50:23;0.28;;;0.28;;
20842;SDS011;26719;51.440;-2.574;2023-10-08T14:52:55;0.20;;;0.20;;
20842;SDS011;26719;51.440;-2.574;2023-10-08T14:55:22;0.20;;;0.20;;
20842;SDS011;26719;51.440;-2.574;2023-10-08T14:57:51;0.30;;;0.30;;
20842;SDS011;26719;51.440;-2.574;2023-10-08T15:00:18;0.20;;;0.20;;
20842;SDS011;26719;51.440;-2.574;2023-10-08T15:02:58;0.20;;;0.20;;
20842;SDS011;26719;51.440;-2.574;2023-10-08T15:05:28;0.20;;;0.20;;
20842;SDS011;26719;51.440;-2.574;2023-10-08T15:07:55;0.20;;;0.20;;